sensor_id;sensor_type;location;lat;lon;timestamp;temperature;humidity
9925;DHT22;5001;51.674;7.868;2022-09-30T00:01:05;6.30;99.90
9925;DHT22;5001;51.674;7.868;2022-09-30T00:03:32;6.30;99.90
9925;DHT22;5001;51.674;7.868;2022-09-30T00:06:02;6.30;99.90
9925;DHT22;5001;51.674;7.868;2022-09-30T00:08:35;6.20;99.90
9925;DHT22;5001;51.674;7.868;2022-09-30T00:11:12;6.20;99.90
9925;DHT22;5001;51.674;7.868;2022-09-30T00:13:39;6.20;1.00
9925;DHT22;5001;51.674;7.868;2022-09-30T00:16:09;6.00;1.00
9925;DHT22;5001;51.674;7.868;2022-09-30T00:18:37;5.90;99.90
9925;DHT22;5001;51.674;7.868;2022-09-30T00:21:05;5.80;99.90
9925;DHT22;5001;51.674;7.868;2022-09-30T00:23:34;5.80;1.00
9925;DHT22;5001;51.674;7.868;2022-09-30T00:26:04;5.90;99.90
9925;DHT22;5001;51.674;7.868;2022-09-30T00:28:32;5.90;99.90
9925;DHT22;5001;51.674;7.868;2022-09-30T00:31:01;5.90;99.90
9925;DHT22;5001;51.674;7.868;2022-09-30T00:33:28;6.00;39.90
9925;DHT22;5001;51.674;7.868;2022-09-30T00:35:55;6.00;1.00
9925;DHT22;5001;51.674;7.868;2022-09-30T00:38:22;5.90;1.00
9925;DHT22;5001;51.674;7.868;2022-09-30T00:40:49;5.90;1.00
9925;DHT22;5001;51.674;7.868;2022-09-30T00:43:41;6.00;1.00
9925;DHT22;5001;51.674;7.868;2022-09-30T00:46:36;5.90;1.00
9925;DHT22;5001;51.674;7.868;2022-09-30T00:49:19;5.90;1.00
9925;DHT22;5001;51.674;7.868;2022-09-30T00:51:52;5.90;1.00
9925;DHT22;5001;51.674;7.868;2022-09-30T00:54:24;5.90;1.00
9925;DHT22;5001;51.674;7.868;2022-09-30T00:56:55;5.90;1.00
9925;DHT22;5001;51.674;7.868;2022-09-30T00:59:28;5.90;1.00
9925;DHT22;5001;51.674;7.868;2022-09-30T01:01:57;5.90;99.90
9925;DHT22;5001;51.674;7.868;2022-09-30T01:04:27;5.80;99.90
9925;DHT22;5001;51.674;7.868;2022-09-30T01:06:58;5.80;99.90
9925;DHT22;5001;51.674;7.868;2022-09-30T01:09:26;5.70;99.90
9925;DHT22;5001;51.674;7.868;2022-09-30T01:11:53;5.70;99.90
9925;DHT22;5001;51.674;7.868;2022-09-30T01:14:22;5.60;99.90
9925;DHT22;5001;51.674;7.868;2022-09-30T01:41:25;5.20;1.00
9925;DHT22;5001;51.674;7.868;2022-09-30T01:44:01;5.10;75.80
9925;DHT22;5001;51.674;7.868;2022-09-30T01:46:36;5.10;99.90
9925;DHT22;5001;51.674;7.868;2022-09-30T02:00:03;5.10;99.90
9925;DHT22;5001;51.674;7.868;2022-09-30T02:02:49;5.10;1.00
9925;DHT22;5001;51.674;7.868;2022-09-30T02:05:34;5.00;99.90
9925;DHT22;5001;51.674;7.868;2022-09-30T02:08:17;5.00;99.90
9925;DHT22;5001;51.674;7.868;2022-09-30T02:10:56;5.10;99.90
9925;DHT22;5001;51.674;7.868;2022-09-30T02:13:44;5.00;99.90
9925;DHT22;5001;51.674;7.868;2022-09-30T02:16:21;5.00;99.90
9925;DHT22;5001;51.674;7.868;2022-09-30T02:19:02;5.10;99.90
9925;DHT22;5001;51.674;7.868;2022-09-30T02:21:35;5.10;91.70
9925;DHT22;5001;51.674;7.868;2022-09-30T02:24:08;5.00;1.00
9925;DHT22;5001;51.674;7.868;2022-09-30T02:26:39;5.10;1.00
9925;DHT22;5001;51.674;7.868;2022-09-30T02:29:17;5.00;1.00
9925;DHT22;5001;51.674;7.868;2022-09-30T02:31:49;5.00;1.00
9925;DHT22;5001;51.674;7.868;2022-09-30T02:34:29;4.90;1.00
9925;DHT22;5001;51.674;7.868;2022-09-30T02:37:20;4.80;1.00
9925;DHT22;5001;51.674;7.868;2022-09-30T02:42:26;4.90;1.00
9925;DHT22;5001;51.674;7.868;2022-09-30T02:45:02;4.90;1.00
9925;DHT22;5001;51.674;7.868;2022-09-30T02:58:08;4.70;1.00
9925;DHT22;5001;51.674;7.868;2022-09-30T03:00:37;4.70;1.00
9925;DHT22;5001;51.674;7.868;2022-09-30T03:06:24;4.70;1.00
9925;DHT22;5001;51.674;7.868;2022-09-30T03:08:52;4.70;1.00
9925;DHT22;5001;51.674;7.868;2022-09-30T03:11:22;4.70;1.00
9925;DHT22;5001;51.674;7.868;2022-09-30T03:30:20;4.60;1.00
9925;DHT22;5001;51.674;7.868;2022-09-30T03:46:33;4.30;1.00
9925;DHT22;5001;51.674;7.868;2022-09-30T03:49:04;4.30;1.00
9925;DHT22;5001;51.674;7.868;2022-09-30T03:51:37;4.30;1.00
9925;DHT22;5001;51.674;7.868;2022-09-30T03:54:10;4.30;1.00
9925;DHT22;5001;51.674;7.868;2022-09-30T03:56:39;4.30;1.00
9925;DHT22;5001;51.674;7.868;2022-09-30T03:59:22;4.30;99.90
9925;DHT22;5001;51.674;7.868;2022-09-30T04:01:51;4.30;99.90
9925;DHT22;5001;51.674;7.868;2022-09-30T04:04:18;4.30;99.90
9925;DHT22;5001;51.674;7.868;2022-09-30T04:06:45;4.30;99.90
9925;DHT22;5001;51.674;7.868;2022-09-30T04:09:12;4.30;84.80
9925;DHT22;5001;51.674;7.868;2022-09-30T04:11:40;4.30;12.40
9925;DHT22;5001;51.674;7.868;2022-09-30T04:14:07;4.30;1.00
9925;DHT22;5001;51.674;7.868;2022-09-30T04:16:34;4.20;1.00
9925;DHT22;5001;51.674;7.868;2022-09-30T04:19:01;4.20;1.00
9925;DHT22;5001;51.674;7.868;2022-09-30T04:21:28;4.20;8.00
9925;DHT22;5001;51.674;7.868;2022-09-30T04:23:55;4.20;1.00
9925;DHT22;5001;51.674;7.868;2022-09-30T04:26:23;4.20;1.00
9925;DHT22;5001;51.674;7.868;2022-09-30T04:28:53;4.30;1.00
9925;DHT22;5001;51.674;7.868;2022-09-30T04:31:24;4.30;1.00
9925;DHT22;5001;51.674;7.868;2022-09-30T04:33:52;4.30;1.00
9925;DHT22;5001;51.674;7.868;2022-09-30T04:36:19;4.30;1.00
9925;DHT22;5001;51.674;7.868;2022-09-30T04:38:46;4.20;1.00
9925;DHT22;5001;51.674;7.868;2022-09-30T04:41:15;4.10;1.00
9925;DHT22;5001;51.674;7.868;2022-09-30T04:43:44;4.10;1.00
9925;DHT22;5001;51.674;7.868;2022-09-30T04:46:18;4.20;1.00
9925;DHT22;5001;51.674;7.868;2022-09-30T04:48:47;4.10;1.00
9925;DHT22;5001;51.674;7.868;2022-09-30T04:51:19;4.10;1.00
9925;DHT22;5001;51.674;7.868;2022-09-30T04:53:47;4.00;1.00
9925;DHT22;5001;51.674;7.868;2022-09-30T04:56:14;3.90;99.90
9925;DHT22;5001;51.674;7.868;2022-09-30T04:58:44;3.90;99.90
9925;DHT22;5001;51.674;7.868;2022-09-30T05:01:15;3.80;99.90
9925;DHT22;5001;51.674;7.868;2022-09-30T05:03:49;3.80;99.90
9925;DHT22;5001;51.674;7.868;2022-09-30T05:06:16;3.90;99.90
9925;DHT22;5001;51.674;7.868;2022-09-30T05:08:43;3.90;99.90
9925;DHT22;5001;51.674;7.868;2022-09-30T05:11:20;3.90;99.90
9925;DHT22;5001;51.674;7.868;2022-09-30T05:13:48;3.90;99.90
9925;DHT22;5001;51.674;7.868;2022-09-30T05:16:17;3.90;94.60
9925;DHT22;5001;51.674;7.868;2022-09-30T05:18:44;3.90;25.90
9925;DHT22;5001;51.674;7.868;2022-09-30T05:21:15;3.90;1.00
9925;DHT22;5001;51.674;7.868;2022-09-30T05:23:42;3.90;1.00
9925;DHT22;5001;51.674;7.868;2022-09-30T05:26:09;3.90;1.00
9925;DHT22;5001;51.674;7.868;2022-09-30T05:28:39;3.90;1.00
9925;DHT22;5001;51.674;7.868;2022-09-30T05:31:06;3.90;1.00
9925;DHT22;5001;51.674;7.868;2022-09-30T05:33:33;3.90;1.00
9925;DHT22;5001;51.674;7.868;2022-09-30T05:36:04;3.90;1.00
9925;DHT22;5001;51.674;7.868;2022-09-30T05:38:32;3.90;1.00
9925;DHT22;5001;51.674;7.868;2022-09-30T05:41:08;3.90;1.00
9925;DHT22;5001;51.674;7.868;2022-09-30T05:43:38;3.90;1.00
9925;DHT22;5001;51.674;7.868;2022-09-30T05:46:06;3.90;1.00
9925;DHT22;5001;51.674;7.868;2022-09-30T05:48:33;4.10;1.00
9925;DHT22;5001;51.674;7.868;2022-09-30T05:51:00;4.10;1.00
9925;DHT22;5001;51.674;7.868;2022-09-30T05:53:29;4.40;1.00
9925;DHT22;5001;51.674;7.868;2022-09-30T05:55:58;5.20;99.90
9925;DHT22;5001;51.674;7.868;2022-09-30T05:58:28;6.30;99.90
9925;DHT22;5001;51.674;7.868;2022-09-30T06:00:55;7.30;1.00
9925;DHT22;5001;51.674;7.868;2022-09-30T06:03:26;8.20;82.70
9925;DHT22;5001;51.674;7.868;2022-09-30T06:05:56;8.80;1.00
9925;DHT22;5001;51.674;7.868;2022-09-30T06:08:23;9.50;1.00
9925;DHT22;5001;51.674;7.868;2022-09-30T06:10:50;9.90;1.00
9925;DHT22;5001;51.674;7.868;2022-09-30T06:13:18;10.30;1.00
9925;DHT22;5001;51.674;7.868;2022-09-30T06:16:00;11.10;1.00
9925;DHT22;5001;51.674;7.868;2022-09-30T06:18:28;12.10;1.00
9925;DHT22;5001;51.674;7.868;2022-09-30T06:20:57;12.80;1.00
9925;DHT22;5001;51.674;7.868;2022-09-30T06:23:25;13.40;1.00
9925;DHT22;5001;51.674;7.868;2022-09-30T06:25:52;13.90;1.00
9925;DHT22;5001;51.674;7.868;2022-09-30T06:28:20;14.30;1.00
9925;DHT22;5001;51.674;7.868;2022-09-30T06:30:48;14.50;1.00
9925;DHT22;5001;51.674;7.868;2022-09-30T06:33:15;14.80;1.00
9925;DHT22;5001;51.674;7.868;2022-09-30T06:35:43;15.20;1.00
9925;DHT22;5001;51.674;7.868;2022-09-30T06:38:16;15.30;1.00
9925;DHT22;5001;51.674;7.868;2022-09-30T06:40:44;15.80;1.00
9925;DHT22;5001;51.674;7.868;2022-09-30T06:43:19;16.30;1.00
9925;DHT22;5001;51.674;7.868;2022-09-30T06:45:47;16.80;1.00
9925;DHT22;5001;51.674;7.868;2022-09-30T06:48:17;16.80;1.00
9925;DHT22;5001;51.674;7.868;2022-09-30T06:50:59;16.80;1.00
9925;DHT22;5001;51.674;7.868;2022-09-30T06:53:28;17.00;1.00
9925;DHT22;5001;51.674;7.868;2022-09-30T06:55:56;17.40;1.00
9925;DHT22;5001;51.674;7.868;2022-09-30T06:58:23;18.30;1.00
9925;DHT22;5001;51.674;7.868;2022-09-30T07:01:01;19.60;1.00
9925;DHT22;5001;51.674;7.868;2022-09-30T07:03:34;20.70;1.00
9925;DHT22;5001;51.674;7.868;2022-09-30T07:06:04;20.40;1.00
9925;DHT22;5001;51.674;7.868;2022-09-30T07:08:33;17.30;1.00
9925;DHT22;5001;51.674;7.868;2022-09-30T07:11:03;17.70;1.00
9925;DHT22;5001;51.674;7.868;2022-09-30T07:13:30;17.10;1.00
9925;DHT22;5001;51.674;7.868;2022-09-30T07:15:58;17.10;1.00
9925;DHT22;5001;51.674;7.868;2022-09-30T07:18:26;16.40;1.00
9925;DHT22;5001;51.674;7.868;2022-09-30T07:20:55;16.20;1.00
9925;DHT22;5001;51.674;7.868;2022-09-30T07:23:23;15.80;1.00
9925;DHT22;5001;51.674;7.868;2022-09-30T07:25:55;17.10;1.00
9925;DHT22;5001;51.674;7.868;2022-09-30T07:28:28;17.00;1.00
9925;DHT22;5001;51.674;7.868;2022-09-30T07:31:00;17.70;1.00
9925;DHT22;5001;51.674;7.868;2022-09-30T07:33:49;17.50;1.00
9925;DHT22;5001;51.674;7.868;2022-09-30T07:36:21;16.50;1.00
9925;DHT22;5001;51.674;7.868;2022-09-30T07:38:58;16.00;1.00
9925;DHT22;5001;51.674;7.868;2022-09-30T07:41:26;17.80;1.00
9925;DHT22;5001;51.674;7.868;2022-09-30T07:43:55;20.90;1.00
9925;DHT22;5001;51.674;7.868;2022-09-30T07:46:27;23.40;1.00
9925;DHT22;5001;51.674;7.868;2022-09-30T07:48:57;24.00;1.00
9925;DHT22;5001;51.674;7.868;2022-09-30T07:51:33;20.50;1.00
9925;DHT22;5001;51.674;7.868;2022-09-30T07:54:07;23.20;1.00
9925;DHT22;5001;51.674;7.868;2022-09-30T07:56:34;20.60;1.00
9925;DHT22;5001;51.674;7.868;2022-09-30T07:59:24;19.80;1.00
9925;DHT22;5001;51.674;7.868;2022-09-30T08:01:53;19.70;1.00
9925;DHT22;5001;51.674;7.868;2022-09-30T08:04:21;16.50;1.00
9925;DHT22;5001;51.674;7.868;2022-09-30T08:06:59;15.30;1.00
9925;DHT22;5001;51.674;7.868;2022-09-30T08:09:27;14.60;1.00
9925;DHT22;5001;51.674;7.868;2022-09-30T08:11:55;14.70;1.00
9925;DHT22;5001;51.674;7.868;2022-09-30T08:14:26;14.50;1.00
9925;DHT22;5001;51.674;7.868;2022-09-30T08:16:53;13.70;1.00
9925;DHT22;5001;51.674;7.868;2022-09-30T08:19:24;13.90;1.00
9925;DHT22;5001;51.674;7.868;2022-09-30T08:21:51;14.00;1.00
9925;DHT22;5001;51.674;7.868;2022-09-30T08:24:22;13.50;1.00
9925;DHT22;5001;51.674;7.868;2022-09-30T08:26:50;13.80;1.00
9925;DHT22;5001;51.674;7.868;2022-09-30T08:29:18;13.60;1.00
9925;DHT22;5001;51.674;7.868;2022-09-30T08:32:05;13.80;1.00
9925;DHT22;5001;51.674;7.868;2022-09-30T08:34:32;13.80;1.00
9925;DHT22;5001;51.674;7.868;2022-09-30T08:37:02;13.60;1.00
9925;DHT22;5001;51.674;7.868;2022-09-30T08:39:36;13.60;1.00
9925;DHT22;5001;51.674;7.868;2022-09-30T08:43:12;13.50;1.00
9925;DHT22;5001;51.674;7.868;2022-09-30T08:53:48;28.30;1.00
9925;DHT22;5001;51.674;7.868;2022-09-30T08:56:24;26.10;1.00
9925;DHT22;5001;51.674;7.868;2022-09-30T09:01:32;25.50;1.00
9925;DHT22;5001;51.674;7.868;2022-09-30T09:04:01;26.60;1.00
9925;DHT22;5001;51.674;7.868;2022-09-30T09:12:04;26.90;1.00
9925;DHT22;5001;51.674;7.868;2022-09-30T09:21:00;27.40;1.00
9925;DHT22;5001;51.674;7.868;2022-09-30T09:23:31;26.00;1.00
9925;DHT22;5001;51.674;7.868;2022-09-30T09:25:59;27.00;1.00
9925;DHT22;5001;51.674;7.868;2022-09-30T09:31:16;28.30;1.00
9925;DHT22;5001;51.674;7.868;2022-09-30T09:33:45;29.80;1.00
9925;DHT22;5001;51.674;7.868;2022-09-30T09:39:48;29.30;1.00
9925;DHT22;5001;51.674;7.868;2022-09-30T09:42:39;31.00;1.00
9925;DHT22;5001;51.674;7.868;2022-09-30T09:45:24;31.30;1.00
9925;DHT22;5001;51.674;7.868;2022-09-30T09:47:52;30.50;1.00
9925;DHT22;5001;51.674;7.868;2022-09-30T09:51:18;33.30;1.00
9925;DHT22;5001;51.674;7.868;2022-09-30T09:53:43;26.80;1.00
9925;DHT22;5001;51.674;7.868;2022-09-30T09:56:35;27.60;1.00
9925;DHT22;5001;51.674;7.868;2022-09-30T10:04:17;33.60;1.00
9925;DHT22;5001;51.674;7.868;2022-09-30T10:06:54;32.00;1.00
9925;DHT22;5001;51.674;7.868;2022-09-30T10:09:36;35.60;1.00
9925;DHT22;5001;51.674;7.868;2022-09-30T10:14:35;32.30;1.00
9925;DHT22;5001;51.674;7.868;2022-09-30T10:17:04;33.50;1.00
9925;DHT22;5001;51.674;7.868;2022-09-30T10:19:51;34.90;1.00
9925;DHT22;5001;51.674;7.868;2022-09-30T10:22:27;31.80;1.00
9925;DHT22;5001;51.674;7.868;2022-09-30T10:27:51;29.40;1.00
9925;DHT22;5001;51.674;7.868;2022-09-30T10:30:41;32.70;1.00
9925;DHT22;5001;51.674;7.868;2022-09-30T10:33:19;30.20;1.00
9925;DHT22;5001;51.674;7.868;2022-09-30T10:35:51;29.20;1.00
9925;DHT22;5001;51.674;7.868;2022-09-30T10:38:19;27.60;1.00
9925;DHT22;5001;51.674;7.868;2022-09-30T10:40:50;28.40;1.00
9925;DHT22;5001;51.674;7.868;2022-09-30T10:43:22;28.60;1.00
9925;DHT22;5001;51.674;7.868;2022-09-30T10:45:51;29.50;1.00
9925;DHT22;5001;51.674;7.868;2022-09-30T10:48:39;28.30;1.00
9925;DHT22;5001;51.674;7.868;2022-09-30T10:51:21;26.90;1.00
9925;DHT22;5001;51.674;7.868;2022-09-30T10:53:49;23.30;1.00
9925;DHT22;5001;51.674;7.868;2022-09-30T10:56:44;23.50;1.00
9925;DHT22;5001;51.674;7.868;2022-09-30T10:59:18;22.60;1.00
9925;DHT22;5001;51.674;7.868;2022-09-30T11:04:40;21.50;1.00
9925;DHT22;5001;51.674;7.868;2022-09-30T11:13:14;21.40;1.00
9925;DHT22;5001;51.674;7.868;2022-09-30T11:18:58;20.00;1.00
9925;DHT22;5001;51.674;7.868;2022-09-30T11:29:52;21.60;1.00
9925;DHT22;5001;51.674;7.868;2022-09-30T11:43:24;24.30;1.00
9925;DHT22;5001;51.674;7.868;2022-09-30T11:58:19;23.00;1.00
9925;DHT22;5001;51.674;7.868;2022-09-30T12:01:12;23.00;1.00
9925;DHT22;5001;51.674;7.868;2022-09-30T12:03:53;23.60;1.00
9925;DHT22;5001;51.674;7.868;2022-09-30T12:06:41;23.70;1.00
9925;DHT22;5001;51.674;7.868;2022-09-30T12:09:39;24.30;1.00
9925;DHT22;5001;51.674;7.868;2022-09-30T12:12:10;25.30;1.00
9925;DHT22;5001;51.674;7.868;2022-09-30T12:15:01;25.20;1.00
9925;DHT22;5001;51.674;7.868;2022-09-30T12:20:46;24.60;1.00
9925;DHT22;5001;51.674;7.868;2022-09-30T12:25:59;22.00;1.00
9925;DHT22;5001;51.674;7.868;2022-09-30T12:28:45;22.90;1.00
9925;DHT22;5001;51.674;7.868;2022-09-30T12:32:14;23.70;1.00
9925;DHT22;5001;51.674;7.868;2022-09-30T12:48:57;19.80;1.00
9925;DHT22;5001;51.674;7.868;2022-09-30T12:51:30;20.00;1.00
9925;DHT22;5001;51.674;7.868;2022-09-30T12:54:09;19.80;1.00
9925;DHT22;5001;51.674;7.868;2022-09-30T12:56:41;19.60;1.00
9925;DHT22;5001;51.674;7.868;2022-09-30T12:59:09;18.90;1.00
9925;DHT22;5001;51.674;7.868;2022-09-30T13:01:37;19.10;1.00
9925;DHT22;5001;51.674;7.868;2022-09-30T13:09:29;19.30;1.00
9925;DHT22;5001;51.674;7.868;2022-09-30T13:19:42;19.30;1.00
9925;DHT22;5001;51.674;7.868;2022-09-30T13:27:37;18.00;1.00
9925;DHT22;5001;51.674;7.868;2022-09-30T13:38:20;18.10;1.00
9925;DHT22;5001;51.674;7.868;2022-09-30T13:41:13;17.80;1.00
9925;DHT22;5001;51.674;7.868;2022-09-30T13:43:42;17.90;1.00
9925;DHT22;5001;51.674;7.868;2022-09-30T13:48:56;17.90;1.00
9925;DHT22;5001;51.674;7.868;2022-09-30T13:51:29;17.70;1.00
9925;DHT22;5001;51.674;7.868;2022-09-30T13:54:07;17.90;1.00
9925;DHT22;5001;51.674;7.868;2022-09-30T13:56:39;17.90;1.00
9925;DHT22;5001;51.674;7.868;2022-09-30T14:23:44;17.80;1.00
9925;DHT22;5001;51.674;7.868;2022-09-30T14:29:00;17.50;1.00
9925;DHT22;5001;51.674;7.868;2022-09-30T14:31:48;17.70;1.00
9925;DHT22;5001;51.674;7.868;2022-09-30T14:34:31;17.50;1.00
9925;DHT22;5001;51.674;7.868;2022-09-30T14:37:03;17.50;1.00
9925;DHT22;5001;51.674;7.868;2022-09-30T14:39:31;17.50;1.00
9925;DHT22;5001;51.674;7.868;2022-09-30T14:42:00;17.30;1.00
9925;DHT22;5001;51.674;7.868;2022-09-30T14:44:32;17.30;1.00
9925;DHT22;5001;51.674;7.868;2022-09-30T14:47:03;17.10;1.00
9925;DHT22;5001;51.674;7.868;2022-09-30T14:49:32;16.90;1.00
9925;DHT22;5001;51.674;7.868;2022-09-30T14:52:02;16.80;1.00
9925;DHT22;5001;51.674;7.868;2022-09-30T14:54:31;16.90;1.00
9925;DHT22;5001;51.674;7.868;2022-09-30T14:57:01;17.00;1.00
9925;DHT22;5001;51.674;7.868;2022-09-30T14:59:31;17.20;1.00
9925;DHT22;5001;51.674;7.868;2022-09-30T15:02:10;17.30;1.00
9925;DHT22;5001;51.674;7.868;2022-09-30T15:04:40;17.30;1.00
9925;DHT22;5001;51.674;7.868;2022-09-30T15:07:12;17.30;1.00
9925;DHT22;5001;51.674;7.868;2022-09-30T15:09:42;17.10;1.00
9925;DHT22;5001;51.674;7.868;2022-09-30T15:12:14;17.00;1.00
9925;DHT22;5001;51.674;7.868;2022-09-30T15:14:49;17.10;1.00
9925;DHT22;5001;51.674;7.868;2022-09-30T15:17:23;17.10;1.00
9925;DHT22;5001;51.674;7.868;2022-09-30T15:19:50;17.20;1.00
9925;DHT22;5001;51.674;7.868;2022-09-30T15:22:18;17.10;1.00
9925;DHT22;5001;51.674;7.868;2022-09-30T15:24:47;17.10;1.00
9925;DHT22;5001;51.674;7.868;2022-09-30T15:27:20;17.10;1.00
9925;DHT22;5001;51.674;7.868;2022-09-30T15:29:58;17.10;1.00
9925;DHT22;5001;51.674;7.868;2022-09-30T15:32:27;17.10;1.00
9925;DHT22;5001;51.674;7.868;2022-09-30T15:34:56;17.10;1.00
9925;DHT22;5001;51.674;7.868;2022-09-30T15:37:26;17.10;1.00
9925;DHT22;5001;51.674;7.868;2022-09-30T15:40:00;17.00;1.00
9925;DHT22;5001;51.674;7.868;2022-09-30T15:42:56;17.00;1.00
9925;DHT22;5001;51.674;7.868;2022-09-30T15:45:41;16.80;1.00
9925;DHT22;5001;51.674;7.868;2022-09-30T15:50:47;16.70;1.00
9925;DHT22;5001;51.674;7.868;2022-09-30T15:53:16;16.70;1.00
9925;DHT22;5001;51.674;7.868;2022-09-30T15:55:58;16.70;1.00
9925;DHT22;5001;51.674;7.868;2022-09-30T15:58:29;16.50;1.00
9925;DHT22;5001;51.674;7.868;2022-09-30T16:01:20;16.40;1.00
9925;DHT22;5001;51.674;7.868;2022-09-30T16:03:57;16.30;1.00
9925;DHT22;5001;51.674;7.868;2022-09-30T16:06:28;16.20;1.00
9925;DHT22;5001;51.674;7.868;2022-09-30T16:09:00;16.10;1.00
9925;DHT22;5001;51.674;7.868;2022-09-30T16:13:58;15.90;1.00
9925;DHT22;5001;51.674;7.868;2022-09-30T16:16:28;15.90;1.00
9925;DHT22;5001;51.674;7.868;2022-09-30T16:18:57;15.90;1.00
9925;DHT22;5001;51.674;7.868;2022-09-30T16:23:57;15.80;1.00
9925;DHT22;5001;51.674;7.868;2022-09-30T16:26:28;15.80;1.00
9925;DHT22;5001;51.674;7.868;2022-09-30T16:28:56;15.70;1.00
9925;DHT22;5001;51.674;7.868;2022-09-30T16:31:27;15.70;1.00
9925;DHT22;5001;51.674;7.868;2022-09-30T16:33:55;15.60;1.00
9925;DHT22;5001;51.674;7.868;2022-09-30T16:36:22;15.50;1.00
9925;DHT22;5001;51.674;7.868;2022-09-30T16:38:49;15.50;1.00
9925;DHT22;5001;51.674;7.868;2022-09-30T16:41:16;15.40;1.00
9925;DHT22;5001;51.674;7.868;2022-09-30T16:43:43;15.30;1.00
9925;DHT22;5001;51.674;7.868;2022-09-30T16:46:10;15.30;1.00
9925;DHT22;5001;51.674;7.868;2022-09-30T16:48:38;15.20;1.00
9925;DHT22;5001;51.674;7.868;2022-09-30T16:51:15;15.10;1.00
9925;DHT22;5001;51.674;7.868;2022-09-30T16:53:42;15.00;1.00
9925;DHT22;5001;51.674;7.868;2022-09-30T16:56:17;14.90;1.00
9925;DHT22;5001;51.674;7.868;2022-09-30T16:58:46;14.80;1.00
9925;DHT22;5001;51.674;7.868;2022-09-30T17:01:19;14.70;1.00
9925;DHT22;5001;51.674;7.868;2022-09-30T17:03:46;14.70;1.00
9925;DHT22;5001;51.674;7.868;2022-09-30T17:06:16;14.50;1.00
9925;DHT22;5001;51.674;7.868;2022-09-30T17:08:43;14.50;1.00
9925;DHT22;5001;51.674;7.868;2022-09-30T17:11:10;14.40;1.00
9925;DHT22;5001;51.674;7.868;2022-09-30T17:13:37;14.40;1.00
9925;DHT22;5001;51.674;7.868;2022-09-30T17:16:04;14.30;1.00
9925;DHT22;5001;51.674;7.868;2022-09-30T17:18:31;14.20;1.00
9925;DHT22;5001;51.674;7.868;2022-09-30T17:20:58;14.00;1.00
9925;DHT22;5001;51.674;7.868;2022-09-30T17:23:26;13.80;1.00
9925;DHT22;5001;51.674;7.868;2022-09-30T17:25:53;13.70;1.00
9925;DHT22;5001;51.674;7.868;2022-09-30T17:28:20;13.50;1.00
9925;DHT22;5001;51.674;7.868;2022-09-30T17:30:48;13.50;1.00
9925;DHT22;5001;51.674;7.868;2022-09-30T17:33:17;13.40;1.00
9925;DHT22;5001;51.674;7.868;2022-09-30T17:35:59;13.30;1.00
9925;DHT22;5001;51.674;7.868;2022-09-30T17:38:27;13.20;1.00
9925;DHT22;5001;51.674;7.868;2022-09-30T17:40:55;13.20;1.00
9925;DHT22;5001;51.674;7.868;2022-09-30T17:43:40;13.10;1.00
9925;DHT22;5001;51.674;7.868;2022-09-30T17:46:07;13.00;1.00
9925;DHT22;5001;51.674;7.868;2022-09-30T17:48:34;12.90;1.00
9925;DHT22;5001;51.674;7.868;2022-09-30T17:51:04;12.80;1.00
9925;DHT22;5001;51.674;7.868;2022-09-30T17:53:31;12.70;1.00
9925;DHT22;5001;51.674;7.868;2022-09-30T17:56:06;12.70;1.00
9925;DHT22;5001;51.674;7.868;2022-09-30T17:58:39;12.60;1.00
9925;DHT22;5001;51.674;7.868;2022-09-30T18:01:07;12.50;1.00
9925;DHT22;5001;51.674;7.868;2022-09-30T18:03:34;12.50;1.00
9925;DHT22;5001;51.674;7.868;2022-09-30T18:06:02;12.40;1.00
9925;DHT22;5001;51.674;7.868;2022-09-30T18:08:29;12.40;1.00
9925;DHT22;5001;51.674;7.868;2022-09-30T18:10:56;12.40;1.00
9925;DHT22;5001;51.674;7.868;2022-09-30T18:13:24;12.40;1.00
9925;DHT22;5001;51.674;7.868;2022-09-30T18:15:53;12.30;1.00
9925;DHT22;5001;51.674;7.868;2022-09-30T18:18:20;12.30;1.00
9925;DHT22;5001;51.674;7.868;2022-09-30T18:20:48;12.20;1.00
9925;DHT22;5001;51.674;7.868;2022-09-30T18:23:16;12.20;1.00
9925;DHT22;5001;51.674;7.868;2022-09-30T18:25:46;12.10;1.00
9925;DHT22;5001;51.674;7.868;2022-09-30T18:28:15;12.10;1.00
9925;DHT22;5001;51.674;7.868;2022-09-30T18:30:42;12.10;1.00
9925;DHT22;5001;51.674;7.868;2022-09-30T18:33:09;12.10;1.00
9925;DHT22;5001;51.674;7.868;2022-09-30T18:35:38;12.20;1.00
9925;DHT22;5001;51.674;7.868;2022-09-30T18:38:05;12.10;1.00
9925;DHT22;5001;51.674;7.868;2022-09-30T18:40:32;12.10;1.00
9925;DHT22;5001;51.674;7.868;2022-09-30T18:43:02;12.00;1.00
9925;DHT22;5001;51.674;7.868;2022-09-30T18:45:32;12.00;1.00
9925;DHT22;5001;51.674;7.868;2022-09-30T18:48:04;11.90;1.00
9925;DHT22;5001;51.674;7.868;2022-09-30T18:50:32;11.90;1.00
9925;DHT22;5001;51.674;7.868;2022-09-30T18:53:00;12.00;1.00
9925;DHT22;5001;51.674;7.868;2022-09-30T18:55:36;12.10;1.00
9925;DHT22;5001;51.674;7.868;2022-09-30T18:58:04;12.10;1.00
9925;DHT22;5001;51.674;7.868;2022-09-30T19:00:31;12.00;1.00
9925;DHT22;5001;51.674;7.868;2022-09-30T19:02:58;12.00;1.00
9925;DHT22;5001;51.674;7.868;2022-09-30T19:05:26;12.00;1.00
9925;DHT22;5001;51.674;7.868;2022-09-30T19:07:54;12.00;1.00
9925;DHT22;5001;51.674;7.868;2022-09-30T19:10:24;11.90;1.00
9925;DHT22;5001;51.674;7.868;2022-09-30T19:12:52;12.00;1.00
9925;DHT22;5001;51.674;7.868;2022-09-30T19:15:18;12.00;1.00
9925;DHT22;5001;51.674;7.868;2022-09-30T19:17:46;11.90;1.00
9925;DHT22;5001;51.674;7.868;2022-09-30T19:20:18;11.80;1.00
9925;DHT22;5001;51.674;7.868;2022-09-30T19:22:45;11.70;1.00
9925;DHT22;5001;51.674;7.868;2022-09-30T19:25:14;11.80;1.00
9925;DHT22;5001;51.674;7.868;2022-09-30T19:27:45;11.80;1.00
9925;DHT22;5001;51.674;7.868;2022-09-30T19:30:13;11.90;1.00
9925;DHT22;5001;51.674;7.868;2022-09-30T19:32:41;12.00;1.00
9925;DHT22;5001;51.674;7.868;2022-09-30T19:35:09;12.00;1.00
9925;DHT22;5001;51.674;7.868;2022-09-30T19:37:40;12.30;1.00
9925;DHT22;5001;51.674;7.868;2022-09-30T19:40:28;11.90;1.00
9925;DHT22;5001;51.674;7.868;2022-09-30T19:43:06;11.90;1.00
9925;DHT22;5001;51.674;7.868;2022-09-30T19:45:34;11.90;1.00
9925;DHT22;5001;51.674;7.868;2022-09-30T19:48:04;11.90;1.00
9925;DHT22;5001;51.674;7.868;2022-09-30T19:50:32;11.80;1.00
9925;DHT22;5001;51.674;7.868;2022-09-30T19:53:02;11.80;1.00
9925;DHT22;5001;51.674;7.868;2022-09-30T19:55:29;12.00;1.00
9925;DHT22;5001;51.674;7.868;2022-09-30T19:58:16;12.20;1.00
9925;DHT22;5001;51.674;7.868;2022-09-30T20:01:00;12.30;1.00
9925;DHT22;5001;51.674;7.868;2022-09-30T20:03:36;12.30;1.00
9925;DHT22;5001;51.674;7.868;2022-09-30T20:06:05;12.40;1.00
9925;DHT22;5001;51.674;7.868;2022-09-30T20:08:35;12.40;1.00
9925;DHT22;5001;51.674;7.868;2022-09-30T20:11:05;12.30;1.00
9925;DHT22;5001;51.674;7.868;2022-09-30T20:13:33;12.30;1.00
9925;DHT22;5001;51.674;7.868;2022-09-30T20:16:04;12.20;1.00
9925;DHT22;5001;51.674;7.868;2022-09-30T20:18:32;12.20;1.00
9925;DHT22;5001;51.674;7.868;2022-09-30T20:20:59;12.10;1.00
9925;DHT22;5001;51.674;7.868;2022-09-30T20:23:27;12.00;1.00
9925;DHT22;5001;51.674;7.868;2022-09-30T20:25:54;11.90;1.00
9925;DHT22;5001;51.674;7.868;2022-09-30T20:28:21;11.80;1.00
9925;DHT22;5001;51.674;7.868;2022-09-30T20:30:48;11.80;1.00
9925;DHT22;5001;51.674;7.868;2022-09-30T20:33:18;11.80;1.00
9925;DHT22;5001;51.674;7.868;2022-09-30T20:35:46;11.80;1.00
9925;DHT22;5001;51.674;7.868;2022-09-30T20:38:17;11.90;1.00
9925;DHT22;5001;51.674;7.868;2022-09-30T20:40:58;11.90;1.00
9925;DHT22;5001;51.674;7.868;2022-09-30T20:43:26;12.00;1.00
9925;DHT22;5001;51.674;7.868;2022-09-30T20:46:01;11.90;1.00
9925;DHT22;5001;51.674;7.868;2022-09-30T20:48:33;11.90;1.00
9925;DHT22;5001;51.674;7.868;2022-09-30T20:51:08;11.90;1.00
9925;DHT22;5001;51.674;7.868;2022-09-30T20:53:36;12.00;1.00
9925;DHT22;5001;51.674;7.868;2022-09-30T20:56:10;12.00;1.00
9925;DHT22;5001;51.674;7.868;2022-09-30T20:58:38;11.90;1.00
9925;DHT22;5001;51.674;7.868;2022-09-30T21:01:10;11.90;1.00